Time;durP1;ratioP1;P1;durP2;ratioP2;P2;SDS_P1;SDS_P2;PMS_P1;PMS_P2;Temp;Humidity;BMP_temperature;BMP_pressure;BME280_temperature;BME280_humidity;BME280_pressure;Samples;Min_cycle;Max_cycle;Signal;HPM_P1;HPM_P2
2021/08/03 00:00:29;;;;;;;18.13;10.23;;;11.70;1.00;;;;;;5071222;28;20271;-64
2021/08/03 00:02:58;;;;;;;17.90;10.47;;;11.70;1.00;;;;;;5071342;28;20552;-64
2021/08/03 00:05:27;;;;;;;13.93;9.67;;;11.70;1.00;;;;;;5069788;28;20669;-63
2021/08/03 00:08:00;;;;;;;20.00;9.70;;;11.70;1.00;;;;;;5051457;28;20406;-64
2021/08/03 00:10:29;;;;;;;12.80;9.47;;;11.70;1.00;;;;;;5051205;28;20231;-63
2021/08/03 00:12:57;;;;;;;14.43;10.13;;;11.70;1.00;;;;;;5052032;28;20223;-64
2021/08/03 00:15:24;;;;;;;18.20;11.77;;;11.60;1.00;;;;;;5054946;28;20201;-64
2021/08/03 00:17:54;;;;;;;17.47;11.73;;;11.60;1.00;;;;;;5054802;28;20259;-63
2021/08/03 00:20:22;;;;;;;17.40;11.77;;;11.50;1.00;;;;;;5054632;28;20598;-63
2021/08/03 00:22:49;;;;;;;21.37;11.30;;;11.50;1.00;;;;;;5054919;28;20627;-62
2021/08/03 00:25:16;;;;;;;17.60;11.37;;;11.50;1.00;;;;;;5054610;28;20226;-63
2021/08/03 00:27:44;;;;;;;17.03;11.20;;;11.60;1.00;;;;;;5054482;28;20210;-63
2021/08/03 00:30:12;;;;;;;18.20;11.00;;;11.50;1.00;;;;;;5054318;28;20283;-63
2021/08/03 00:32:38;;;;;;;17.40;11.17;;;11.60;1.00;;;;;;5054686;28;20259;-63
2021/08/03 00:35:05;;;;;;;16.37;11.13;;;11.50;9.80;;;;;;5054482;28;20207;-63
2021/08/03 00:37:32;;;;;;;18.30;11.60;;;11.50;14.30;;;;;;5054445;28;20621;-63
2021/08/03 00:39:59;;;;;;;22.20;12.23;;;11.60;15.00;;;;;;5054326;28;20280;-63
2021/08/03 00:42:25;;;;;;;19.13;13.50;;;11.50;16.20;;;;;;5054394;28;20247;-63
2021/08/03 00:44:53;;;;;;;21.20;12.70;;;11.50;49.60;;;;;;5053872;28;20217;-63
2021/08/03 00:47:21;;;;;;;19.30;13.17;;;11.50;75.70;;;;;;5054571;28;20213;-63
2021/08/03 00:49:48;;;;;;;22.17;13.23;;;11.50;90.90;;;;;;5054007;28;20594;-63
2021/08/03 00:52:16;;;;;;;24.43;14.63;;;11.50;75.10;;;;;;5054311;28;20255;-63
2021/08/03 00:54:43;;;;;;;26.87;16.20;;;11.40;70.50;;;;;;5054087;28;20728;-63
2021/08/03 00:57:11;;;;;;;30.93;19.27;;;11.40;99.90;;;;;;5054156;28;20665;-63
2021/08/03 00:59:38;;;;;;;28.87;18.63;;;11.30;99.90;;;;;;5053606;28;20237;-62
2021/08/03 01:02:08;;;;;;;28.10;19.57;;;11.30;99.90;;;;;;5054116;28;20210;-63
2021/08/03 01:04:36;;;;;;;33.13;20.53;;;11.40;99.90;;;;;;5053603;28;20670;-64
2021/08/03 01:07:09;;;;;;;29.07;19.63;;;11.40;99.90;;;;;;5053950;28;20240;-63
2021/08/03 01:09:45;;;;;;;31.53;18.40;;;11.40;99.90;;;;;;5053863;28;20646;-63
2021/08/03 01:12:22;;;;;;;27.63;17.40;;;11.40;99.90;;;;;;5053653;28;20213;-63
2021/08/03 01:14:59;;;;;;;22.50;16.43;;;11.40;99.90;;;;;;5053568;28;20644;-63
2021/08/03 01:17:34;;;;;;;27.40;16.53;;;11.50;99.90;;;;;;5053844;28;20244;-63
2021/08/03 01:20:06;;;;;;;23.33;16.53;;;11.50;99.90;;;;;;5053577;28;20270;-64
2021/08/03 01:22:51;;;;;;;22.87;16.27;;;11.50;99.90;;;;;;5053472;28;20211;-63
2021/08/03 01:25:25;;;;;;;30.20;17.63;;;11.40;99.90;;;;;;5053166;28;20218;-63
2021/08/03 01:28:12;;;;;;;25.47;16.90;;;11.40;99.90;;;;;;5053474;28;20204;-64
2021/08/03 01:30:43;;;;;;;26.37;16.07;;;11.40;99.90;;;;;;5053221;28;20303;-63
2021/08/03 01:33:11;;;;;;;25.10;16.53;;;11.30;99.90;;;;;;5053446;28;20201;-64
2021/08/03 01:35:41;;;;;;;24.43;16.73;;;11.30;99.90;;;;;;5053453;28;20626;-63
2021/08/03 01:38:08;;;;;;;21.60;15.27;;;11.30;99.90;;;;;;5053485;28;20213;-64
2021/08/03 01:40:37;;;;;;;23.90;15.10;;;11.30;99.90;;;;;;5052983;28;20272;-63
2021/08/03 01:43:06;;;;;;;24.37;16.23;;;11.40;99.90;;;;;;5053226;28;20556;-64
2021/08/03 01:45:35;;;;;;;29.50;16.33;;;11.40;99.90;;;;;;5052884;28;20225;-63
2021/08/03 01:48:02;;;;;;;26.90;17.03;;;11.40;99.90;;;;;;5053519;28;20263;-64
2021/08/03 01:50:29;;;;;;;22.87;17.07;;;11.40;99.90;;;;;;5053683;28;20232;-62
2021/08/03 01:52:58;;;;;;;23.27;15.97;;;11.40;99.90;;;;;;5053161;28;20210;-63
2021/08/03 01:55:26;;;;;;;25.30;16.67;;;11.40;99.90;;;;;;5052972;28;20205;-63
2021/08/03 01:57:53;;;;;;;29.03;16.80;;;11.40;99.90;;;;;;5052751;28;20236;-63
2021/08/03 02:00:21;;;;;;;25.73;16.73;;;11.40;99.90;;;;;;5053006;28;20299;-63
2021/08/03 02:02:48;;;;;;;21.90;14.97;;;11.40;99.90;;;;;;5067939;28;20262;-63
2021/08/03 02:05:16;;;;;;;25.53;16.50;;;11.40;99.90;;;;;;5072553;28;20762;-63
2021/08/03 02:07:43;;;;;;;25.93;17.23;;;11.30;99.90;;;;;;5072783;28;20251;-63
2021/08/03 02:10:10;;;;;;;29.03;17.23;;;11.30;99.90;;;;;;5072131;28;20228;-62
2021/08/03 02:12:37;;;;;;;29.57;16.67;;;11.30;99.90;;;;;;5072399;28;20217;-63
2021/08/03 02:15:05;;;;;;;31.33;17.93;;;11.40;99.90;;;;;;5072911;28;20201;-63
2021/08/03 02:17:33;;;;;;;28.97;17.93;;;11.40;99.90;;;;;;5073061;28;20768;-64
2021/08/03 02:19:59;;;;;;;27.73;16.63;;;11.40;99.90;;;;;;5068091;28;20233;-63
2021/08/03 02:22:26;;;;;;;32.13;17.40;;;11.40;99.90;;;;;;5072331;28;20250;-63
2021/08/03 02:24:53;;;;;;;29.40;17.13;;;11.40;99.90;;;;;;5072374;28;20251;-64
2021/08/03 02:27:19;;;;;;;27.70;17.13;;;11.40;99.90;;;;;;5059557;28;20306;-63
2021/08/03 02:29:47;;;;;;;24.40;15.47;;;11.40;1.00;;;;;;5052583;28;20231;-63
2021/08/03 02:32:17;;;;;;;23.07;15.07;;;11.40;1.00;;;;;;5052233;28;20205;-64
2021/08/03 02:34:52;;;;;;;23.33;15.63;;;11.40;1.00;;;;;;5064557;28;20335;-64
2021/08/03 02:37:23;;;;;;;22.13;15.10;;;11.40;1.00;;;;;;5071387;28;20205;-63
2021/08/03 02:39:53;;;;;;;27.20;15.23;;;11.40;1.00;;;;;;5072359;28;20229;-63
2021/08/03 02:42:22;;;;;;;22.17;14.00;;;11.40;1.00;;;;;;5071799;28;20208;-63
2021/08/03 02:44:53;;;;;;;25.83;14.00;;;11.40;99.90;;;;;;5071905;28;20697;-63
2021/08/03 02:47:25;;;;;;;21.73;14.23;;;11.40;99.90;;;;;;5072159;28;20274;-64
2021/08/03 02:49:54;;;;;;;20.73;14.00;;;11.40;99.90;;;;;;5071904;28;20237;-63
2021/08/03 02:52:25;;;;;;;22.50;14.57;;;11.50;99.90;;;;;;5061880;28;20207;-63
2021/08/03 02:54:57;;;;;;;20.57;13.77;;;11.50;99.90;;;;;;5051647;28;20739;-63
2021/08/03 02:57:25;;;;;;;23.67;14.27;;;11.50;99.90;;;;;;5051783;28;20206;-63
2021/08/03 02:59:57;;;;;;;24.37;14.57;;;11.60;99.90;;;;;;5051775;28;20225;-63
2021/08/03 03:02:26;;;;;;;19.70;14.07;;;11.60;99.90;;;;;;5051704;28;20210;-63
2021/08/03 03:05:00;;;;;;;22.57;14.30;;;11.60;99.90;;;;;;5051591;28;20209;-64
2021/08/03 03:07:31;;;;;;;25.07;14.60;;;11.60;99.90;;;;;;5051869;28;20222;-64
2021/08/03 03:09:59;;;;;;;22.00;14.13;;;11.60;99.90;;;;;;5065768;28;20282;-64
2021/08/03 03:12:29;;;;;;;18.83;13.60;;;11.70;99.90;;;;;;5071436;28;20219;-63
2021/08/03 03:15:00;;;;;;;21.83;13.20;;;11.70;99.90;;;;;;5071257;28;20259;-64
2021/08/03 03:17:31;;;;;;;20.60;14.50;;;11.70;99.90;;;;;;5071807;28;20205;-63
2021/08/03 03:20:00;;;;;;;17.93;14.10;;;11.70;99.90;;;;;;5071622;28;20233;-64
2021/08/03 03:22:28;;;;;;;25.90;13.73;;;11.70;99.90;;;;;;5071773;28;20254;-64
2021/08/03 03:24:56;;;;;;;20.93;14.03;;;11.80;99.90;;;;;;5069576;28;20213;-63
2021/08/03 03:27:25;;;;;;;20.37;14.07;;;11.80;99.90;;;;;;5070909;28;20781;-63
2021/08/03 03:29:53;;;;;;;21.53;13.97;;;11.80;99.90;;;;;;5071872;28;20303;-63
2021/08/03 03:32:21;;;;;;;16.73;13.27;;;11.80;99.90;;;;;;5071718;28;20364;-64
2021/08/03 03:34:50;;;;;;;22.53;14.23;;;11.80;99.90;;;;;;5071580;28;20576;-63
2021/08/03 03:37:18;;;;;;;17.13;12.77;;;11.90;99.90;;;;;;5071258;28;20202;-64
2021/08/03 03:39:45;;;;;;;18.83;13.33;;;11.90;99.90;;;;;;5072008;28;20693;-65
2021/08/03 03:42:12;;;;;;;19.50;14.10;;;11.90;99.90;;;;;;5065670;28;20901;-63
2021/08/03 03:44:41;;;;;;;19.70;12.23;;;12.00;99.90;;;;;;5052113;28;20206;-64
2021/08/03 03:47:17;;;;;;;16.57;12.47;;;12.00;99.90;;;;;;5052720;28;20221;-65
2021/08/03 03:49:47;;;;;;;13.80;11.33;;;12.00;99.90;;;;;;5055517;28;20274;-64
2021/08/03 03:52:18;;;;;;;15.57;11.70;;;12.10;99.90;;;;;;5055872;28;20218;-64
2021/08/03 03:54:50;;;;;;;16.37;12.13;;;12.10;45.70;;;;;;5055087;28;20207;-64
2021/08/03 03:57:18;;;;;;;14.90;11.37;;;12.10;14.50;;;;;;5055528;28;20198;-64
2021/08/03 03:59:46;;;;;;;21.70;12.20;;;12.20;1.00;;;;;;5064250;28;20253;-64
2021/08/03 04:02:15;;;;;;;16.07;11.67;;;12.20;1.00;;;;;;5075112;28;20724;-64
2021/08/03 04:04:43;;;;;;;15.13;11.23;;;12.20;1.00;;;;;;5075025;28;20261;-64
2021/08/03 04:07:10;;;;;;;15.57;11.87;;;12.30;1.00;;;;;;5074869;28;20803;-64
2021/08/03 04:09:38;;;;;;;19.70;12.17;;;12.30;1.00;;;;;;5074666;28;20221;-64
2021/08/03 04:12:07;;;;;;;18.20;12.07;;;12.30;1.00;;;;;;5075143;28;20299;-64
2021/08/03 04:14:35;;;;;;;20.83;12.47;;;12.30;1.00;;;;;;5074841;28;20218;-64
2021/08/03 04:17:01;;;;;;;18.20;12.67;;;12.30;1.00;;;;;;5059029;28;20619;-64
2021/08/03 04:19:28;;;;;;;17.43;12.50;;;12.30;1.00;;;;;;5054770;28;20739;-64
2021/08/03 04:21:55;;;;;;;17.37;11.97;;;12.40;15.60;;;;;;5054742;28;20206;-64
2021/08/03 04:24:22;;;;;;;14.70;11.50;;;12.40;1.00;;;;;;5052392;28;20211;-64
2021/08/03 04:26:48;;;;;;;17.70;12.87;;;12.50;1.00;;;;;;5073154;28;20630;-64
2021/08/03 04:29:16;;;;;;;20.27;13.53;;;12.40;57.70;;;;;;5062940;28;20229;-63
2021/08/03 04:31:43;;;;;;;20.13;13.37;;;12.40;99.90;;;;;;5069785;28;20232;-64
2021/08/03 04:34:10;;;;;;;16.87;12.57;;;12.40;99.90;;;;;;5055191;28;20208;-64
2021/08/03 04:36:37;;;;;;;16.30;12.40;;;12.40;99.90;;;;;;5054652;28;20208;-64
2021/08/03 04:39:10;;;;;;;20.07;12.23;;;12.40;99.90;;;;;;5054383;28;20231;-64
2021/08/03 04:41:36;;;;;;;17.40;13.30;;;12.40;99.90;;;;;;5059983;28;20643;-64
2021/08/03 04:44:03;;;;;;;18.67;13.03;;;12.40;99.90;;;;;;5074272;28;20254;-64
2021/08/03 04:46:31;;;;;;;17.13;12.33;;;12.40;99.90;;;;;;5074088;28;20270;-61
2021/08/03 04:48:58;;;;;;;18.43;12.90;;;12.40;99.90;;;;;;5074907;28;20316;-62
2021/08/03 04:51:25;;;;;;;16.17;12.80;;;12.40;99.90;;;;;;5060125;28;20249;-61
2021/08/03 04:53:51;;;;;;;20.73;12.80;;;12.40;99.90;;;;;;5074115;28;20201;-61
2021/08/03 04:56:18;;;;;;;20.47;13.10;;;12.40;99.90;;;;;;5069481;28;20200;-62
2021/08/03 04:58:44;;;;;;;16.70;12.90;;;12.40;99.90;;;;;;5053255;28;20632;-61
2021/08/03 05:01:11;;;;;;;15.93;12.47;;;12.50;99.90;;;;;;5053827;28;20213;-61
2021/08/03 05:03:39;;;;;;;20.47;12.23;;;12.50;99.90;;;;;;5073201;28;20201;-62
2021/08/03 05:06:06;;;;;;;16.67;12.83;;;12.60;99.90;;;;;;5073270;28;20234;-64
2021/08/03 05:08:32;;;;;;;17.53;12.27;;;12.60;99.90;;;;;;5073239;28;20220;-61
2021/08/03 05:10:59;;;;;;;18.73;13.43;;;12.60;99.90;;;;;;5073610;28;20776;-61
2021/08/03 05:13:25;;;;;;;22.30;14.10;;;12.70;99.90;;;;;;5073345;28;20217;-64
2021/08/03 05:15:52;;;;;;;23.83;15.17;;;12.70;99.90;;;;;;5073380;28;20755;-63
2021/08/03 05:18:19;;;;;;;20.27;13.77;;;12.60;99.90;;;;;;5073836;28;20616;-61
2021/08/03 05:20:47;;;;;;;22.53;14.43;;;12.60;1.00;;;;;;5073687;28;20230;-62
2021/08/03 05:23:13;;;;;;;20.87;13.63;;;12.60;99.90;;;;;;5069363;28;20260;-62
2021/08/03 05:25:40;;;;;;;20.67;13.50;;;12.70;99.90;;;;;;5053345;28;20206;-65
2021/08/03 05:28:08;;;;;;;19.97;14.23;;;12.70;99.90;;;;;;5069968;28;20228;-66
2021/08/03 05:30:34;;;;;;;20.07;14.20;;;12.70;99.90;;;;;;5073289;28;20236;-68
2021/08/03 05:33:01;;;;;;;19.07;13.37;;;12.80;99.90;;;;;;5073607;28;20208;-67
2021/08/03 05:35:28;;;;;;;19.03;14.17;;;12.80;99.90;;;;;;5066415;28;20205;-66
2021/08/03 05:37:56;;;;;;;18.93;12.90;;;12.90;99.90;;;;;;5073087;28;20265;-66
2021/08/03 05:40:22;;;;;;;16.23;12.93;;;13.00;99.90;;;;;;5068243;28;20220;-63
2021/08/03 05:42:49;;;;;;;16.60;12.03;;;13.00;99.90;;;;;;5052752;28;20211;-63
2021/08/03 05:45:16;;;;;;;13.40;11.10;;;13.00;1.00;;;;;;5065817;28;20205;-63
2021/08/03 05:47:43;;;;;;;16.27;11.13;;;13.10;1.00;;;;;;5072580;28;20228;-64
2021/08/03 05:50:10;;;;;;;19.30;11.67;;;13.20;1.00;;;;;;5072900;28;20221;-63
2021/08/03 05:52:37;;;;;;;16.83;12.30;;;13.30;99.90;;;;;;5068263;28;20681;-63
2021/08/03 05:55:05;;;;;;;17.27;11.13;;;13.40;99.90;;;;;;5052592;28;20727;-64
2021/08/03 05:57:32;;;;;;;15.17;10.23;;;13.50;99.90;;;;;;5053267;28;20261;-65
2021/08/03 05:59:58;;;;;;;13.23;10.27;;;13.50;92.60;;;;;;5072378;28;20231;-64
2021/08/03 06:02:25;;;;;;;16.47;10.27;;;13.60;1.00;;;;;;5072863;28;20607;-64
2021/08/03 06:04:52;;;;;;;13.03;10.00;;;13.60;1.00;;;;;;5072169;28;20205;-65
2021/08/03 06:07:19;;;;;;;14.40;9.40;;;13.70;1.00;;;;;;5072348;28;20225;-64
2021/08/03 06:09:52;;;;;;;14.17;9.87;;;13.70;99.90;;;;;;5072166;28;20224;-65
2021/08/03 06:12:21;;;;;;;13.30;10.13;;;13.80;1.00;;;;;;5073550;28;20205;-65
2021/08/03 06:14:49;;;;;;;12.67;9.27;;;13.90;1.00;;;;;;5071105;28;20220;-64
2021/08/03 06:17:18;;;;;;;13.40;9.80;;;13.90;99.90;;;;;;5052255;28;20216;-64
2021/08/03 06:19:47;;;;;;;15.17;9.90;;;13.90;1.00;;;;;;5053186;28;20229;-65
2021/08/03 06:22:16;;;;;;;14.70;9.73;;;14.00;99.90;;;;;;5053239;28;20206;-64
2021/08/03 06:24:47;;;;;;;16.07;10.37;;;14.00;1.00;;;;;;5052552;28;20251;-63
2021/08/03 06:27:15;;;;;;;13.17;9.70;;;13.90;99.90;;;;;;5052478;28;20228;-64
2021/08/03 06:29:45;;;;;;;12.77;10.13;;;13.90;1.00;;;;;;5071269;28;20274;-64
2021/08/03 06:32:12;;;;;;;11.87;10.03;;;14.00;1.00;;;;;;5071104;28;20262;-68
2021/08/03 06:34:43;;;;;;;12.90;9.80;;;14.10;99.90;;;;;;5051365;28;20201;-67
2021/08/03 06:37:10;;;;;;;13.27;9.97;;;14.20;10.50;;;;;;5051807;28;20205;-67
2021/08/03 06:39:38;;;;;;;15.73;9.63;;;14.30;1.00;;;;;;5051788;28;20287;-66
2021/08/03 06:42:10;;;;;;;13.57;10.10;;;14.40;99.90;;;;;;5062154;28;20669;-65
2021/08/03 06:44:48;;;;;;;15.27;8.97;;;14.40;99.90;;;;;;5071290;28;20205;-65
2021/08/03 06:47:20;;;;;;;12.10;9.23;;;14.50;99.90;;;;;;5071735;28;20224;-64
2021/08/03 06:49:51;;;;;;;15.13;9.03;;;14.60;1.00;;;;;;5052221;28;20295;-65
2021/08/03 06:52:20;;;;;;;13.93;8.63;;;14.60;99.90;;;;;;5056106;28;20205;-65
2021/08/03 06:54:49;;;;;;;14.43;9.53;;;14.70;99.90;;;;;;5071172;28;20213;-65
2021/08/03 06:57:17;;;;;;;14.30;9.17;;;14.70;99.90;;;;;;5070761;28;20475;-65
2021/08/03 06:59:51;;;;;;;12.60;8.83;;;14.70;10.50;;;;;;5071663;28;20232;-64
2021/08/03 07:02:24;;;;;;;10.43;7.73;;;14.70;99.90;;;;;;5071254;28;20253;-66
2021/08/03 07:04:58;;;;;;;10.10;8.27;;;14.80;28.60;;;;;;5071513;28;20213;-67
2021/08/03 07:07:25;;;;;;;11.23;8.93;;;14.80;1.00;;;;;;5065882;28;20295;-66
2021/08/03 07:09:53;;;;;;;9.60;7.70;;;14.80;99.90;;;;;;5051481;28;20228;-64
2021/08/03 07:12:21;;;;;;;11.20;7.80;;;14.80;1.00;;;;;;5051045;28;20208;-64
2021/08/03 07:14:50;;;;;;;10.50;7.00;;;14.90;1.00;;;;;;5051047;28;20217;-71
2021/08/03 07:17:17;;;;;;;8.70;6.80;;;14.90;99.90;;;;;;5068676;28;20209;-67
2021/08/03 07:19:44;;;;;;;11.43;6.80;;;14.90;99.90;;;;;;5070804;28;20224;-69
2021/08/03 07:22:14;;;;;;;8.93;6.97;;;15.00;99.90;;;;;;5070889;28;20205;-68
2021/08/03 07:24:42;;;;;;;9.47;6.73;;;15.10;99.90;;;;;;5051625;28;20628;-68
2021/08/03 07:27:09;;;;;;;8.93;6.10;;;15.10;1.00;;;;;;5070206;28;20237;-63
2021/08/03 07:29:36;;;;;;;10.30;7.17;;;15.20;99.90;;;;;;5070645;28;20233;-64
2021/08/03 07:32:04;;;;;;;10.50;6.27;;;15.20;99.90;;;;;;5071093;28;20209;-62
2021/08/03 07:34:31;;;;;;;8.20;6.00;;;15.20;99.90;;;;;;5070998;28;20204;-63
2021/08/03 07:37:00;;;;;;;8.83;6.07;;;15.20;99.90;;;;;;5070841;28;20208;-63
2021/08/03 07:39:27;;;;;;;8.33;6.23;;;15.20;99.90;;;;;;5070070;28;20229;-62
2021/08/03 07:41:55;;;;;;;10.13;7.43;;;15.30;99.90;;;;;;5069400;28;20270;-66
2021/08/03 07:44:22;;;;;;;8.63;7.53;;;15.30;99.90;;;;;;5050765;28;20228;-67
2021/08/03 07:46:49;;;;;;;10.87;7.47;;;15.30;1.00;;;;;;5065814;28;20213;-67
2021/08/03 07:49:18;;;;;;;10.80;7.70;;;15.20;1.00;;;;;;5070336;28;20228;-67
2021/08/03 07:51:46;;;;;;;12.00;8.20;;;15.20;1.00;;;;;;5056541;28;20205;-66
2021/08/03 07:54:12;;;;;;;9.40;8.33;;;15.20;99.90;;;;;;5050178;28;20217;-66
2021/08/03 07:56:39;;;;;;;10.50;7.07;;;15.30;99.90;;;;;;5050781;28;20288;-66
2021/08/03 07:59:05;;;;;;;11.60;6.77;;;15.40;1.00;;;;;;5066649;28;20225;-67
2021/08/03 08:01:34;;;;;;;8.93;6.60;;;15.30;1.00;;;;;;5070897;28;20217;-63
2021/08/03 08:04:01;;;;;;;8.37;6.73;;;15.40;59.20;;;;;;5070702;28;20204;-65
2021/08/03 08:06:29;;;;;;;7.87;6.23;;;15.50;1.00;;;;;;5070638;28;20209;-66
2021/08/03 08:08:55;;;;;;;8.13;6.40;;;15.50;1.00;;;;;;5070637;28;20282;-66
2021/08/03 08:11:22;;;;;;;10.37;6.40;;;15.50;1.00;;;;;;5070112;28;20980;-65
2021/08/03 08:13:49;;;;;;;8.80;6.50;;;15.60;99.90;;;;;;5070591;28;20213;-65
2021/08/03 08:16:15;;;;;;;9.10;6.80;;;15.60;1.00;;;;;;5070604;28;20266;-63
2021/08/03 08:18:42;;;;;;;9.63;6.30;;;15.70;99.90;;;;;;5070658;28;20242;-63
2021/08/03 08:21:09;;;;;;;8.53;6.20;;;15.80;99.90;;;;;;5070101;28;20726;-63
2021/08/03 08:23:37;;;;;;;8.40;5.93;;;15.80;99.90;;;;;;5071072;28;20258;-63
2021/08/03 08:26:04;;;;;;;9.17;6.00;;;15.90;99.90;;;;;;5070860;28;20209;-63
2021/08/03 08:28:31;;;;;;;8.03;6.77;;;16.00;1.00;;;;;;5070229;28;20282;-63
2021/08/03 08:30:57;;;;;;;8.07;7.27;;;15.90;99.90;;;;;;5070659;28;20599;-65
2021/08/03 08:33:24;;;;;;;10.77;7.30;;;15.90;1.00;;;;;;5070433;28;20258;-65
2021/08/03 08:35:51;;;;;;;9.80;8.33;;;16.00;18.60;;;;;;5073817;28;20258;-66
2021/08/03 08:38:18;;;;;;;11.30;7.33;;;16.00;99.90;;;;;;5073851;28;20200;-67
2021/08/03 08:40:46;;;;;;;9.60;7.47;;;16.00;1.00;;;;;;5074221;28;20298;-66
2021/08/03 08:43:15;;;;;;;14.93;7.73;;;16.00;1.00;;;;;;5074171;28;20205;-65
2021/08/03 08:45:43;;;;;;;10.50;7.27;;;16.10;1.00;;;;;;5073618;28;20236;-63
2021/08/03 08:48:11;;;;;;;10.30;5.90;;;16.20;1.00;;;;;;5053374;28;20221;-63
2021/08/03 08:50:38;;;;;;;10.03;6.27;;;16.20;1.00;;;;;;5054018;28;21025;-63
2021/08/03 08:53:05;;;;;;;10.07;5.33;;;16.20;99.90;;;;;;5053934;28;20205;-67
2021/08/03 08:55:32;;;;;;;7.70;5.27;;;16.30;99.90;;;;;;5053491;28;20266;-66
2021/08/03 08:58:00;;;;;;;6.37;4.73;;;16.40;1.00;;;;;;5059922;28;20661;-65
2021/08/03 09:00:28;;;;;;;6.57;5.73;;;16.40;99.90;;;;;;5073800;28;20633;-65
2021/08/03 09:02:56;;;;;;;9.70;5.43;;;16.40;99.90;;;;;;5073763;28;20569;-65
2021/08/03 09:05:29;;;;;;;7.33;5.47;;;16.50;99.90;;;;;;5073137;28;20729;-66
2021/08/03 09:07:57;;;;;;;9.47;5.50;;;16.60;99.90;;;;;;5073549;28;20700;-62
2021/08/03 09:10:36;;;;;;;8.93;4.83;;;16.80;1.00;;;;;;5073555;28;20221;-63
2021/08/03 09:13:07;;;;;;;7.33;4.80;;;16.90;99.90;;;;;;5073587;28;20274;-62
2021/08/03 09:15:36;;;;;;;5.70;4.60;;;17.10;99.90;;;;;;5072832;28;20947;-63
2021/08/03 09:18:22;;;;;;;6.67;4.50;;;17.20;1.00;;;;;;5073740;28;20633;-63
2021/08/03 09:20:49;;;;;;;7.03;4.90;;;17.30;99.90;;;;;;5073189;28;20267;-64
2021/08/03 09:23:16;;;;;;;7.97;5.00;;;17.40;99.90;;;;;;5073296;28;20215;-66
2021/08/03 09:25:56;;;;;;;5.47;4.53;;;17.50;99.90;;;;;;5072624;28;20665;-67
2021/08/03 09:28:24;;;;;;;8.33;4.40;;;17.60;99.90;;;;;;5072976;28;20221;-64
2021/08/03 09:30:51;;;;;;;6.13;4.53;;;17.80;99.90;;;;;;5073084;28;20767;-63
2021/08/03 09:33:24;;;;;;;8.17;5.20;;;17.90;99.90;;;;;;5073254;28;20212;-62
2021/08/03 09:35:51;;;;;;;7.67;4.60;;;17.90;35.70;;;;;;5072669;28;20208;-62
2021/08/03 09:38:19;;;;;;;7.97;4.63;;;18.00;1.00;;;;;;5072499;28;20205;-62
2021/08/03 09:40:47;;;;;;;7.17;5.03;;;18.20;9.20;;;;;;5073062;28;20225;-63
2021/08/03 09:43:16;;;;;;;7.93;6.27;;;18.20;1.00;;;;;;5073107;28;20240;-63
2021/08/03 09:45:59;;;;;;;6.73;4.57;;;18.30;98.20;;;;;;5072409;28;20201;-64
2021/08/03 09:48:27;;;;;;;6.77;5.00;;;18.50;1.00;;;;;;5072950;28;20637;-66
2021/08/03 09:50:57;;;;;;;7.27;4.57;;;18.70;1.00;;;;;;5062048;28;20229;-66
2021/08/03 09:53:42;;;;;;;7.20;4.50;;;19.00;1.00;;;;;;5052802;28;20205;-63
2021/08/03 09:56:11;;;;;;;6.50;4.33;;;19.20;1.00;;;;;;5064855;28;20614;-63
2021/08/03 09:58:50;;;;;;;5.67;3.73;;;19.40;1.00;;;;;;5072580;28;20197;-63
2021/08/03 10:01:31;;;;;;;6.13;4.67;;;19.20;1.00;;;;;;5072558;28;20201;-64
2021/08/03 10:04:00;;;;;;;6.27;4.93;;;19.20;1.00;;;;;;5072735;28;20266;-66
2021/08/03 10:06:27;;;;;;;6.43;4.60;;;18.80;1.00;;;;;;5072562;28;20204;-65
2021/08/03 10:08:55;;;;;;;6.27;4.40;;;18.60;99.90;;;;;;5056440;28;20225;-67
2021/08/03 10:11:23;;;;;;;9.67;5.00;;;18.50;99.90;;;;;;5052329;28;20654;-64
2021/08/03 10:13:50;;;;;;;6.27;4.43;;;18.40;99.90;;;;;;5052278;28;20221;-63
2021/08/03 10:16:18;;;;;;;6.00;3.50;;;18.60;99.90;;;;;;5052425;28;20206;-64
2021/08/03 10:18:48;;;;;;;6.10;3.50;;;18.90;99.90;;;;;;5052901;28;20626;-64
2021/08/03 10:21:24;;;;;;;6.37;3.63;;;19.10;99.90;;;;;;5053062;28;20209;-65
2021/08/03 10:23:52;;;;;;;11.97;4.80;;;19.30;99.90;;;;;;5052256;28;20239;-64
2021/08/03 10:26:19;;;;;;;7.20;4.60;;;19.40;99.90;;;;;;5065401;28;20205;-62
2021/08/03 10:28:45;;;;;;;5.23;3.70;;;19.30;99.90;;;;;;5072094;28;20294;-65
2021/08/03 10:31:38;;;;;;;6.07;3.83;;;19.20;99.90;;;;;;5072804;28;20205;-64
2021/08/03 10:34:07;;;;;;;6.30;3.63;;;19.30;99.90;;;;;;5071351;28;20209;-65
2021/08/03 10:36:47;;;;;;;6.40;4.00;;;19.30;99.90;;;;;;5070997;28;20209;-64
2021/08/03 10:39:16;;;;;;;7.37;4.10;;;19.10;99.90;;;;;;5071695;28;20299;-65
2021/08/03 10:42:08;;;;;;;6.57;4.10;;;18.90;99.90;;;;;;5072019;28;20240;-65
2021/08/03 10:44:44;;;;;;;6.73;4.03;;;18.90;99.90;;;;;;5051398;28;20206;-66
2021/08/03 10:47:43;;;;;;;6.47;5.07;;;19.00;99.90;;;;;;5053031;28;20224;-63
2021/08/03 10:50:12;;;;;;;3.83;3.20;;;19.00;99.90;;;;;;5071390;28;20316;-64
2021/08/03 10:52:53;;;;;;;4.60;3.30;;;19.10;99.90;;;;;;5071609;28;20209;-63
2021/08/03 10:55:33;;;;;;;3.87;3.03;;;19.20;99.90;;;;;;5066506;28;20209;-72
2021/08/03 10:58:22;;;;;;;3.40;3.10;;;19.30;99.90;;;;;;5057973;28;20205;-70
2021/08/03 11:00:51;;;;;;;5.80;3.80;;;19.40;99.90;;;;;;5069035;28;20653;-71
2021/08/03 11:03:41;;;;;;;4.87;3.70;;;19.40;99.90;;;;;;5071946;28;20295;-69
2021/08/03 11:06:33;;;;;;;5.03;3.40;;;19.40;99.90;;;;;;5071410;28;20205;-68
2021/08/03 11:09:00;;;;;;;5.37;3.33;;;19.30;99.90;;;;;;5062654;28;20228;-67
2021/08/03 11:11:29;;;;;;;5.70;3.90;;;19.30;99.90;;;;;;5071051;28;20205;-67
2021/08/03 11:13:57;;;;;;;7.23;3.67;;;19.20;99.90;;;;;;5070929;28;20208;-69
2021/08/03 11:16:56;;;;;;;5.10;3.37;;;18.90;99.90;;;;;;5071380;28;20215;-71
2021/08/03 11:19:30;;;;;;;9.00;3.80;;;18.80;99.90;;;;;;5051376;28;20225;-70
2021/08/03 11:21:58;;;;;;;5.17;3.33;;;18.60;99.90;;;;;;5051582;28;20274;-69
2021/08/03 11:24:42;;;;;;;5.30;3.40;;;18.60;99.90;;;;;;5052391;28;20264;-70
2021/08/03 11:27:09;;;;;;;6.10;3.93;;;18.50;99.90;;;;;;5071465;28;20205;-69
2021/08/03 11:29:38;;;;;;;6.33;3.90;;;18.50;99.90;;;;;;5071168;28;20228;-69
2021/08/03 11:32:06;;;;;;;5.10;3.40;;;18.50;99.90;;;;;;5071369;28;20287;-68
2021/08/03 11:34:35;;;;;;;5.10;3.40;;;18.50;99.90;;;;;;5068882;28;20209;-70
2021/08/03 11:37:15;;;;;;;5.83;3.40;;;18.40;99.90;;;;;;5070941;28;20205;-68
2021/08/03 11:39:48;;;;;;;4.17;3.43;;;18.30;99.90;;;;;;5063612;28;20602;-69
2021/08/03 11:42:15;;;;;;;5.87;3.80;;;18.20;99.90;;;;;;5068823;28;20216;-69
2021/08/03 11:44:43;;;;;;;5.63;3.47;;;18.10;99.90;;;;;;5067294;28;20201;-69
2021/08/03 11:47:12;;;;;;;5.50;3.20;;;18.10;99.90;;;;;;5071034;28;20215;-69
2021/08/03 11:49:42;;;;;;;6.27;3.73;;;18.00;99.90;;;;;;5070945;28;20294;-70
2021/08/03 11:52:20;;;;;;;5.07;3.20;;;18.00;99.90;;;;;;5069838;28;20209;-70
2021/08/03 11:54:50;;;;;;;5.53;3.30;;;18.00;99.90;;;;;;5070472;28;20779;-69
2021/08/03 11:57:30;;;;;;;5.23;3.50;;;18.00;99.90;;;;;;5070657;28;20213;-67
2021/08/03 12:00:08;;;;;;;5.03;3.73;;;18.00;99.90;;;;;;5070616;28;20220;-68
2021/08/03 12:02:35;;;;;;;7.33;4.70;;;17.90;99.90;;;;;;5071222;28;20254;-69
2021/08/03 12:05:21;;;;;;;8.50;4.30;;;17.70;99.90;;;;;;5070360;28;20208;-69
2021/08/03 12:07:52;;;;;;;6.10;4.40;;;17.60;99.90;;;;;;5071899;28;20204;-69
2021/08/03 12:10:22;;;;;;;5.47;4.13;;;17.60;99.90;;;;;;5061089;28;20234;-69
2021/08/03 12:12:49;;;;;;;5.40;3.60;;;17.50;99.90;;;;;;5054605;28;20205;-69
2021/08/03 12:15:17;;;;;;;5.00;4.10;;;17.50;99.90;;;;;;5072679;28;20200;-71
2021/08/03 12:17:45;;;;;;;4.87;3.70;;;17.50;99.90;;;;;;5074361;28;20205;-67
2021/08/03 12:20:33;;;;;;;5.93;4.00;;;17.60;99.90;;;;;;5074527;28;20221;-72
2021/08/03 12:23:16;;;;;;;5.30;3.40;;;17.60;99.90;;;;;;5074257;28;20266;-70
2021/08/03 12:25:48;;;;;;;6.73;3.57;;;17.70;99.90;;;;;;5074342;28;20749;-68
2021/08/03 12:28:38;;;;;;;5.37;3.60;;;17.70;99.90;;;;;;5057306;28;20264;-70
2021/08/03 12:31:16;;;;;;;5.83;3.77;;;17.70;99.90;;;;;;5074138;28;20727;-69
2021/08/03 12:33:43;;;;;;;3.93;3.47;;;17.80;99.90;;;;;;5074340;28;20623;-69
2021/08/03 12:36:12;;;;;;;6.07;3.77;;;17.90;99.90;;;;;;5073961;28;20209;-69
2021/08/03 12:38:40;;;;;;;10.03;6.70;;;18.00;99.90;;;;;;5074029;28;20201;-71
2021/08/03 12:41:18;;;;;;;7.00;4.27;;;18.10;99.90;;;;;;5074378;28;20205;-70
2021/08/03 12:43:45;;;;;;;7.67;3.60;;;18.20;99.90;;;;;;5073354;28;20216;-73
2021/08/03 12:46:12;;;;;;;4.57;3.60;;;18.30;99.90;;;;;;5053427;28;20205;-70
2021/08/03 12:48:49;;;;;;;7.77;3.80;;;18.50;99.90;;;;;;5053974;28;20218;-68
2021/08/03 12:51:24;;;;;;;6.07;4.07;;;18.50;99.90;;;;;;5060976;28;20240;-68